Latest Weather Observations for Tarcoola

IDS60801

Issued at 10:01 am CDT Sunday 17 February 2019 (issued every 10 minutes, with the page automatically refreshed every 10 minutes)

About weather observations | Map of weather stations | Latest weather observations for SA | Other Formats
Station Details ID: 016098 Name: TARCOOLA AERO Lat: -30.71 Lon: 134.58 Height: 123.0 m
Data from the previous 72 hours. | See also: Recent months at Tarcoola
Date/Time
CDT
Temp
°C
App
Temp
°C
Dew
Point
°C
Rel
Hum
%
Delta-T
°C
Wind Press
QNH
hPa
Press
MSL
hPa
Rain since
9am
mm
Dir  Spd
km/h
Gust
km/h
Spd
kts
Gust
kts
17/10:00am 31.3 25.4 1.6 15 14.8 NE 22 26 12 14 1012.5 1011.7 0.0
17/09:30am 29.0 23.5 0.7 16 13.7 NE 19 24 10 13 1012.7 1011.9 0.0
17/09:00am 27.3 23.0 0.9 18 12.6 NE 13 17 7 9 1012.9 1012.1 0.0
17/08:30am 25.5 20.8 0.9 20 11.6 NNE 15 20 8 11 1012.7 1011.9 0.0
17/08:00am 24.0 20.1 1.0 22 10.8 ENE 11 13 6 7 1012.4 1011.6 0.0
17/07:30am 22.6 18.3 1.0 24 10.0 ENE 13 15 7 8 1011.8 1011.1 0.0
17/07:00am 23.2 18.9 0.9 23 10.4 ENE 13 15 7 8 1011.6 1010.9 0.0
17/06:30am 23.9 18.5 1.5 23 10.6 E 19 24 10 13 1011.4 1010.7 0.0
17/06:00am 24.2 18.9 1.8 23 10.7 E 19 24 10 13 1011.5 1010.8 0.0
17/05:30am 25.2 19.8 1.3 21 11.4 E 19 22 10 12 1011.5 1010.8 0.0
17/05:00am 26.0 20.5 2.0 21 11.6 ESE 20 26 11 14 1011.4 1010.7 0.0
17/04:30am 26.2 20.8 2.2 21 11.7 ESE 20 32 11 17 1011.4 1010.7 0.0
17/04:00am 26.6 21.1 1.8 20 12.0 ESE 20 26 11 14 1011.5 1010.8 0.0
17/03:30am 27.1 21.7 2.2 20 12.2 ESE 20 28 11 15 1011.6 1010.9 0.0
17/03:00am 27.0 22.7 3.5 22 11.8 SE 15 22 8 12 1012.0 1011.2 0.0
17/02:30am 24.0 22.3 3.9 27 9.9 SSW 2 7 1 4 1012.2 1011.4 0.0
17/02:00am 23.3 20.9 2.2 25 10.0 SW 4 7 2 4 1012.6 1011.8 0.0
17/01:30am 25.0 22.2 3.0 24 10.8 SSW 7 9 4 5 1013.0 1012.2 0.0
17/01:00am 25.0 21.7 2.4 23 10.9 WSW 9 11 5 6 1013.3 1012.5 0.0
17/12:30am 26.8 23.8 2.0 20 12.1 S 7 9 4 5 1013.5 1012.7 0.0
17/12:00am 28.6 24.5 2.0 18 13.1 S 13 15 7 8 1013.6 1012.8 0.0
 
Date/Time
CDT
Temp
°C
App
Temp
°C
Dew
Point
°C
Rel
Hum
%
Delta-T
°C
Wind Press
QNH
hPa
Press
MSL
hPa
Rain since
9am
mm
Dir  Spd
km/h
Gust
km/h
Spd
kts
Gust
kts
16/11:30pm 30.2 25.4 2.5 17 13.9 S 17 20 9 11 1013.8 1013.1 0.0
16/11:00pm 31.4 25.5 1.7 15 14.8 S 22 30 12 16 1013.9 1013.2 0.0
16/10:30pm 31.7 26.3 1.0 14 15.2 S 19 28 10 15 1013.7 1012.9 0.0
16/10:00pm 30.5 26.5 -2.1 12 15.1 ENE 9 9 5 5 1013.3 1012.5 0.0
16/09:30pm 31.2 27.3 -1.5 12 15.4 E 9 9 5 5 1013.1 1012.3 0.0
16/09:00pm 33.2 29.3 -1.2 11 16.5 ESE 9 11 5 6 1012.8 1012.0 0.0
16/08:30pm 34.9 30.8 0.1 11 17.3 S 11 13 6 7 1012.4 1011.6 0.0
16/08:00pm 36.2 31.7 -0.2 10 18.1 S 13 17 7 9 1012.2 1011.4 0.0
16/07:30pm 36.7 31.9 0.1 10 18.4 SSE 15 20 8 11 1012.0 1011.2 0.0
16/07:00pm 37.2 32.6 -0.9 9 18.9 S 13 24 7 13 1012.0 1011.2 0.0
16/06:30pm 37.4 33.2 -0.8 9 19.0 S 11 22 6 12 1012.1 1011.3 0.0
16/06:00pm 37.7 33.9 -0.6 9 19.2 SSW 9 22 5 12 1012.3 1011.5 0.0
16/05:30pm 37.7 33.5 -0.6 9 19.2 S 11 24 6 13 1012.4 1011.6 0.0
16/05:00pm 37.0 33.7 0.4 10 18.5 SSW 7 11 4 6 1012.6 1011.8 0.0
16/04:30pm 37.4 33.2 -0.8 9 19.0 W 11 17 6 9 1013.0 1012.2 0.0
16/04:00pm 38.2 33.9 1.3 10 19.1 SW 13 32 7 17 1013.3 1012.5 0.0
16/03:30pm 36.8 32.0 0.2 10 18.4 E 15 24 8 13 1013.8 1013.1 0.0
16/03:00pm 36.0 31.5 -0.4 10 18.1 SE 13 24 7 13 1014.4 1013.7 0.0
16/02:30pm 36.6 32.9 0.1 10 18.3 S 9 22 5 12 1015.0 1014.3 0.0
16/02:00pm 35.7 30.6 0.7 11 17.6 SW 17 26 9 14 1015.4 1014.7 0.0
16/01:30pm 35.9 32.7 0.9 11 17.7 S 7 17 4 9 1016.0 1015.3 0.0
16/01:00pm 35.1 31.4 0.2 11 17.4 NNW 9 13 5 7 1016.5 1015.8 0.0
16/12:30pm 33.7 29.5 -0.8 11 16.7 NNE 11 17 6 9 1017.1 1016.4 0.0
16/12:00pm 34.0 30.6 -0.6 11 16.9 E 7 11 4 6 1017.6 1016.9 0.0
16/11:30am 33.3 30.2 0.1 12 16.3 SE 6 11 3 6 1018.0 1017.3 0.0
16/11:00am 31.5 27.4 -0.2 13 15.3 NE 11 15 6 8 1018.3 1017.6 0.0
16/10:30am 31.2 27.6 0.6 14 14.9 ENE 9 17 5 9 1018.3 1017.6 0.0
16/10:00am 29.2 25.2 0.8 16 13.7 ENE 11 15 6 8 1018.3 1017.6 0.0
16/09:30am 27.6 23.3 1.2 18 12.7 E 13 17 7 9 1018.2 1017.5 0.0
16/09:00am 26.4 24.0 2.3 21 11.7 SSE 4 11 2 6 1018.1 1017.4 0.0
16/08:30am 22.2 20.1 1.8 26 9.5 SW 2 6 1 3 1018.1 1017.4 0.0
16/08:00am 19.5 16.6 1.5 30 8.2 WSW 6 7 3 4 1017.9 1017.2 0.0
16/07:30am 16.8 13.2 0.5 33 7.1 WSW 9 9 5 5 1017.9 1017.2 0.0
16/07:00am 17.4 13.8 0.6 32 7.4 WSW 9 11 5 6 1017.6 1016.9 0.0
16/06:30am 19.9 17.1 1.8 30 8.3 S 6 7 3 4 1017.3 1016.6 0.0
16/06:00am 20.8 18.8 2.1 29 8.7 ENE 2 6 1 3 1016.9 1016.2 0.0
16/05:30am 22.3 19.6 2.4 27 9.4 NE 6 9 3 5 1016.8 1016.1 0.0
16/05:00am 23.9 19.9 2.7 25 10.2 SSE 13 17 7 9 1016.9 1016.2 0.0
16/04:30am 21.4 19.8 2.2 28 9.0 CALM 0 9 0 5 1016.9 1016.2 0.0
16/04:00am 23.5 20.3 2.9 26 10.0 SE 9 15 5 8 1017.2 1016.5 0.0
16/03:30am 21.2 18.3 1.5 27 9.1 SSE 6 9 3 5 1017.5 1016.8 0.0
16/03:00am 20.9 17.7 0.7 26 9.2 SW 7 9 4 5 1017.8 1017.1 0.0
16/02:30am 21.5 18.3 0.7 25 9.5 SW 7 9 4 5 1018.0 1017.3 0.0
16/02:00am 23.4 19.5 1.1 23 10.4 S 11 17 6 9 1018.1 1017.4 0.0
16/01:30am 23.9 19.9 0.3 21 10.9 SSW 11 15 6 8 1018.4 1017.7 0.0
16/01:00am 23.6 19.8 -0.6 20 11.0 SW 9 11 5 6 1018.4 1017.7 0.0
16/12:30am 26.0 20.7 -0.9 17 12.3 SW 17 26 9 14 1018.6 1017.9 0.0
16/12:00am 24.8 20.7 -2.7 16 12.1 N 9 11 5 6 1018.4 1017.7 0.0
 
Date/Time
CDT
Temp
°C
App
Temp
°C
Dew
Point
°C
Rel
Hum
%
Delta-T
°C
Wind Press
QNH
hPa
Press
MSL
hPa
Rain since
9am
mm
Dir  Spd
km/h
Gust
km/h
Spd
kts
Gust
kts
15/11:30pm 25.8 21.7 -2.8 15 12.6 ENE 9 11 5 6 1018.5 1017.8 0.0
15/11:00pm 26.0 23.7 -2.6 15 12.7 CALM 0 0 0 0 1018.7 1018.0 0.0
15/10:30pm 27.7 23.7 -2.2 14 13.5 ESE 9 11 5 6 1018.6 1017.9 0.0
15/10:00pm 28.6 24.6 -2.5 13 14.1 ESE 9 11 5 6 1018.5 1017.8 0.0
15/09:30pm 30.2 25.4 -2.3 12 15.0 SE 13 17 7 9 1018.4 1017.7 0.0
15/09:00pm 31.1 26.4 -1.6 12 15.4 SE 13 19 7 10 1018.1 1017.4 0.0
15/08:30pm 31.6 28.1 -1.2 12 15.6 S 7 11 4 6 1017.6 1016.9 0.0
15/08:00pm 33.0 28.4 -1.4 11 16.5 S 13 17 7 9 1017.2 1016.5 0.0
15/07:30pm 34.1 29.6 -0.5 11 16.9 S 13 20 7 11 1016.8 1016.1 0.0
15/07:00pm 34.2 30.4 -0.4 11 17.0 ESE 9 22 5 12 1016.7 1016.0 0.0
15/06:30pm 33.9 29.3 -0.7 11 16.8 S 13 26 7 14 1016.9 1016.2 0.0
15/06:00pm 34.1 29.4 -1.8 10 17.2 SE 13 24 7 13 1017.0 1016.3 0.0
15/05:30pm 34.6 29.2 -1.4 10 17.4 SSW 17 24 9 13 1017.2 1016.5 0.0
15/05:00pm 34.3 30.5 -0.4 11 17.0 W 9 13 5 7 1017.3 1016.6 0.0
15/04:30pm 33.7 30.3 -0.8 11 16.7 ESE 7 13 4 7 1017.6 1016.9 0.0
15/04:00pm 33.8 30.4 -0.7 11 16.8 SW 7 13 4 7 1017.9 1017.2 0.0
15/03:30pm 32.7 28.4 -1.6 11 16.3 S 11 22 6 12 1018.5 1017.8 0.0
15/03:00pm 32.9 28.6 -1.4 11 16.4 E 11 24 6 13 1018.8 1018.1 0.0
15/02:30pm 32.4 28.5 -1.8 11 16.2 SSE 9 19 5 10 1019.3 1018.6 0.0
15/02:00pm 32.8 29.1 -0.3 12 16.1 WNW 9 15 5 8 1019.8 1019.1 0.0
15/01:30pm 31.9 27.7 -1.0 12 15.7 SE 11 20 6 11 1020.2 1019.5 0.0
15/01:00pm 31.8 27.7 0.0 13 15.5 N 11 20 6 11 1020.9 1020.1 0.0
15/12:30pm 31.2 27.8 -0.5 13 15.2 N 7 17 4 9 1021.3 1020.6 0.0
15/12:00pm 30.1 26.4 -0.3 14 14.5 N 9 19 5 10 1021.8 1021.1 0.0
15/11:30am 29.1 24.6 -0.1 15 13.9 NE 13 20 7 11 1022.1 1021.4 0.0
15/11:00am 28.9 23.4 0.6 16 13.6 NE 19 24 10 13 1022.3 1021.6 0.0
15/10:30am 27.8 22.8 1.3 18 12.8 ENE 17 24 9 13 1022.3 1021.6 0.0
15/10:00am 26.7 21.8 1.9 20 12.0 ENE 17 20 9 11 1022.4 1021.7 0.0
15/09:30am 25.4 20.5 2.2 22 11.2 ENE 17 22 9 12 1022.2 1021.5 0.0
15/09:00am 24.0 19.0 1.6 23 10.6 E 17 20 9 11 1021.9 1021.2 0.0
15/08:30am 22.5 18.2 0.9 24 9.9 E 13 17 7 9 1021.5 1020.8 0.0
15/08:00am 18.4 15.4 0.5 30 7.9 ENE 6 9 3 5 1021.1 1020.4 0.0
15/07:30am 13.9 11.4 -1.3 35 6.2 E 2 7 1 4 1020.7 1019.9 0.0
15/07:00am 13.4 9.9 -1.0 37 5.9 WSW 7 11 4 6 1020.2 1019.5 0.0
15/06:30am 13.8 9.6 -1.0 36 6.1 WSW 11 11 6 6 1019.7 1019.0 0.0
15/06:00am 14.4 12.2 -1.2 34 6.4 CALM 0 0 0 0 1019.3 1018.6 0.0
15/05:30am 16.3 14.3 -0.4 32 7.1 CALM 0 0 0 0 1019.0 1018.3 0.0
15/05:00am 20.2 15.8 0.6 27 8.8 E 13 15 7 8 1018.9 1018.2 0.0
15/04:30am 20.3 15.6 0.7 27 8.8 E 15 19 8 10 1018.9 1018.2 0.0
15/04:00am 18.8 14.8 0.4 29 8.2 E 11 13 6 7 1019.1 1018.4 0.0
15/03:30am 18.7 14.7 0.8 30 8.0 E 11 13 6 7 1019.0 1018.3 0.0
15/03:00am 17.8 14.1 0.0 30 7.7 ENE 9 11 5 6 1019.0 1018.3 0.0
15/02:30am 18.7 15.1 0.3 29 8.1 ENE 9 11 5 6 1019.3 1018.6 0.0
15/02:00am 19.7 16.6 0.2 27 8.7 ENE 6 7 3 4 1019.4 1018.7 0.0
15/01:30am 22.0 18.1 1.1 25 9.6 ESE 11 15 6 8 1019.5 1018.8 0.0
15/01:00am 21.9 18.3 0.4 24 9.8 ESE 9 15 5 8 1019.6 1018.9 0.0
15/12:30am 22.4 18.5 0.9 24 9.9 ESE 11 13 6 7 1019.6 1018.9 0.0
15/12:00am 22.9 18.9 0.7 23 10.2 ESE 11 13 6 7 1019.6 1018.9 0.0
 
Date/Time
CDT
Temp
°C
App
Temp
°C
Dew
Point
°C
Rel
Hum
%
Delta-T
°C
Wind Press
QNH
hPa
Press
MSL
hPa
Rain since
9am
mm
Dir  Spd
km/h
Gust
km/h
Spd
kts
Gust
kts
14/11:30pm 23.1 18.8 0.9 23 10.3 SE 13 15 7 8 1019.6 1018.9 0.0
14/11:00pm 21.3 17.4 -1.3 22 9.9 SE 9 9 5 5 1019.8 1019.1 0.0
14/10:30pm 22.7 18.9 -0.7 21 10.5 SE 9 11 5 6 1019.5 1018.8 0.0
14/10:00pm 23.7 19.9 -0.6 20 11.0 SSE 9 11 5 6 1019.1 1018.4 0.0
14/09:30pm 25.2 21.5 0.0 19 11.7 SSE 9 11 5 6 1018.7 1018.0 0.0
14/09:00pm 26.5 22.7 -0.5 17 12.5 SE 9 11 5 6 1018.1 1017.4 0.0
14/08:30pm 28.0 23.5 -0.1 16 13.2 ESE 13 15 7 8 1017.9 1017.2 0.0
14/08:00pm 29.0 25.3 -0.2 15 13.9 ESE 9 19 5 10 1017.8 1017.1 0.0
14/07:30pm 29.8 24.5 -0.5 14 14.4 E 17 26 9 14 1017.6 1016.9 0.0
14/07:00pm 29.8 25.3 -0.5 14 14.4 NE 13 20 7 11 1017.4 1016.7 0.0
14/06:30pm 30.3 25.5 -0.1 14 14.6 ENE 15 26 8 14 1017.4 1016.7 0.0
14/06:00pm 30.2 25.9 0.7 15 14.3 SE 13 30 7 16 1017.3 1016.6 0.0
14/05:30pm 30.5 27.3 1.0 15 14.4 ENE 7 17 4 9 1017.4 1016.7 0.0
14/05:00pm 29.9 25.5 0.5 15 14.2 ENE 13 26 7 14 1017.5 1016.8 0.0
14/04:30pm 29.7 25.0 1.2 16 13.9 ESE 15 28 8 15 1017.8 1017.1 0.0
14/04:00pm 29.7 26.2 1.2 16 13.9 ENE 9 15 5 8 1018.1 1017.4 0.0
14/03:30pm 28.8 24.4 0.5 16 13.6 E 13 22 7 12 1018.4 1017.7 0.0
14/03:00pm 29.0 24.0 1.5 17 13.4 NE 17 33 9 18 1018.9 1018.2 0.0
14/02:30pm 28.4 24.2 1.8 18 13.0 ENE 13 24 7 13 1019.3 1018.6 0.0
14/02:00pm 27.5 23.8 2.6 20 12.3 E 11 22 6 12 1019.6 1018.9 0.0
14/01:30pm 26.9 23.6 2.7 21 11.9 SSE 9 19 5 10 1020.0 1019.3 0.0
14/01:00pm 26.0 21.9 2.0 21 11.6 NE 13 22 7 12 1020.5 1019.7 0.0
14/12:30pm 25.5 21.6 3.5 24 10.9 ESE 13 26 7 14 1020.9 1020.1 0.0
14/12:00pm 25.5 21.8 4.6 26 10.5 E 13 24 7 13 1021.3 1020.6 0.0
14/11:30am 24.7 19.8 5.0 28 9.9 E 20 28 11 15 1021.5 1020.8 0.0
14/11:00am 23.5 18.7 5.4 31 9.2 E 20 28 11 15 1021.6 1020.9 0.0
14/10:30am 22.7 17.9 5.6 33 8.6 E 20 28 11 15 1021.4 1020.7 0.0

Other Formats:

Comma delimited format used in spreadsheet applications
http://www.bom.gov.au/fwo/IDS60801/IDS60801.94655.axf

JavaScript Object Notation format (JSON) in row-major order
http://www.bom.gov.au/fwo/IDS60801/IDS60801.94655.json